sensor_id;sensor_type;location;lat;lon;timestamp;pressure;altitude;pressure_sealevel;temperature;humidity
21300;BME280;10809;49.476;11.016;2023-05-02T00:01:54;98288.19;;;10.20;57.10
21300;BME280;10809;49.476;11.016;2023-05-02T00:04:24;98290.16;;;10.16;57.06
21300;BME280;10809;49.476;11.016;2023-05-02T00:06:55;98286.72;;;10.14;56.96
21300;BME280;10809;49.476;11.016;2023-05-02T00:09:25;98286.06;;;10.11;56.99
21300;BME280;10809;49.476;11.016;2023-05-02T00:12:02;98273.06;;;10.06;57.21
21300;BME280;10809;49.476;11.016;2023-05-02T00:14:33;98277.59;;;10.04;57.20
21300;BME280;10809;49.476;11.016;2023-05-02T00:17:03;98277.75;;;10.01;57.08
21300;BME280;10809;49.476;11.016;2023-05-02T00:19:37;98278.75;;;9.99;56.93
21300;BME280;10809;49.476;11.016;2023-05-02T00:22:09;98277.09;;;9.96;57.22
21300;BME280;10809;49.476;11.016;2023-05-02T00:24:39;98273.69;;;9.94;57.01
21300;BME280;10809;49.476;11.016;2023-05-02T00:27:10;98286.16;;;9.92;56.97
21300;BME280;10809;49.476;11.016;2023-05-02T00:29:41;98281.00;;;9.89;57.24
21300;BME280;10809;49.476;11.016;2023-05-02T00:32:12;98276.75;;;9.87;57.09
21300;BME280;10809;49.476;11.016;2023-05-02T00:34:43;98277.75;;;9.84;56.95
21300;BME280;10809;49.476;11.016;2023-05-02T00:37:16;98284.84;;;9.84;57.29
21300;BME280;10809;49.476;11.016;2023-05-02T00:39:47;98276.22;;;9.80;57.01
21300;BME280;10809;49.476;11.016;2023-05-02T00:42:17;98271.94;;;9.78;57.20
21300;BME280;10809;49.476;11.016;2023-05-02T00:44:48;98272.00;;;9.76;57.32
21300;BME280;10809;49.476;11.016;2023-05-02T00:47:22;98270.38;;;9.74;57.10
21300;BME280;10809;49.476;11.016;2023-05-02T00:49:52;98277.47;;;9.73;57.17
21300;BME280;10809;49.476;11.016;2023-05-02T00:52:24;98280.25;;;9.70;57.10
21300;BME280;10809;49.476;11.016;2023-05-02T00:54:54;98280.44;;;9.67;57.48
21300;BME280;10809;49.476;11.016;2023-05-02T00:57:25;98284.00;;;9.66;57.28
21300;BME280;10809;49.476;11.016;2023-05-02T00:59:56;98280.59;;;9.64;57.19
21300;BME280;10809;49.476;11.016;2023-05-02T01:05:27;98285.19;;;9.61;57.77
21300;BME280;10809;49.476;11.016;2023-05-02T01:11:19;98297.63;;;9.58;57.38
21300;BME280;10809;49.476;11.016;2023-05-02T01:13:52;98298.50;;;9.59;57.40
21300;BME280;10809;49.476;11.016;2023-05-02T01:16:24;98288.84;;;9.58;57.81
21300;BME280;10809;49.476;11.016;2023-05-02T01:18:56;98295.06;;;9.57;57.53
21300;BME280;10809;49.476;11.016;2023-05-02T01:21:28;98289.94;;;9.54;57.99
21300;BME280;10809;49.476;11.016;2023-05-02T01:24:06;98282.97;;;9.53;57.99
21300;BME280;10809;49.476;11.016;2023-05-02T01:27:06;98284.81;;;9.51;57.72
21300;BME280;10809;49.476;11.016;2023-05-02T01:29:41;98287.47;;;9.51;57.77
21300;BME280;10809;49.476;11.016;2023-05-02T01:32:20;98276.09;;;9.49;58.04
21300;BME280;10809;49.476;11.016;2023-05-02T01:34:53;98277.91;;;9.48;58.16
21300;BME280;10809;49.476;11.016;2023-05-02T01:37:29;98286.75;;;9.47;57.76
21300;BME280;10809;49.476;11.016;2023-05-02T01:40:01;98282.41;;;9.46;57.85
21300;BME280;10809;49.476;11.016;2023-05-02T01:42:35;98285.91;;;9.47;58.13
21300;BME280;10809;49.476;11.016;2023-05-02T01:45:07;98285.91;;;9.47;58.25
21300;BME280;10809;49.476;11.016;2023-05-02T01:47:39;98289.47;;;9.46;58.24
21300;BME280;10809;49.476;11.016;2023-05-02T01:50:18;98286.00;;;9.45;58.21
21300;BME280;10809;49.476;11.016;2023-05-02T01:52:51;98291.34;;;9.44;58.28
21300;BME280;10809;49.476;11.016;2023-05-02T01:55:23;98290.50;;;9.43;58.05
21300;BME280;10809;49.476;11.016;2023-05-02T01:58:01;98295.00;;;9.41;58.00
21300;BME280;10809;49.476;11.016;2023-05-02T02:00:33;98297.72;;;9.40;57.99
21300;BME280;10809;49.476;11.016;2023-05-02T02:03:09;98299.53;;;9.39;58.08
21300;BME280;10809;49.476;11.016;2023-05-02T02:05:45;98297.78;;;9.38;58.35
21300;BME280;10809;49.476;11.016;2023-05-02T02:08:17;98298.81;;;9.36;58.09
21300;BME280;10809;49.476;11.016;2023-05-02T02:10:52;98305.03;;;9.35;58.21
21300;BME280;10809;49.476;11.016;2023-05-02T02:13:35;98291.03;;;9.33;57.93
21300;BME280;10809;49.476;11.016;2023-05-02T02:16:18;98301.69;;;9.31;58.01
21300;BME280;10809;49.476;11.016;2023-05-02T02:18:53;98305.31;;;9.29;58.37
21300;BME280;10809;49.476;11.016;2023-05-02T02:21:27;98305.41;;;9.27;58.05
21300;BME280;10809;49.476;11.016;2023-05-02T02:24:01;98306.41;;;9.25;58.21
21300;BME280;10809;49.476;11.016;2023-05-02T02:26:39;98305.63;;;9.23;58.33
21300;BME280;10809;49.476;11.016;2023-05-02T02:29:11;98314.56;;;9.20;57.89
21300;BME280;10809;49.476;11.016;2023-05-02T02:31:42;98313.72;;;9.20;58.24
21300;BME280;10809;49.476;11.016;2023-05-02T02:34:12;98315.59;;;9.18;58.20
21300;BME280;10809;49.476;11.016;2023-05-02T02:36:47;98317.44;;;9.16;58.36
21300;BME280;10809;49.476;11.016;2023-05-02T02:42:46;98329.03;;;9.13;58.19
21300;BME280;10809;49.476;11.016;2023-05-02T02:45:34;98336.09;;;9.13;58.48
21300;BME280;10809;49.476;11.016;2023-05-02T02:48:39;98335.38;;;9.09;58.61
21300;BME280;10809;49.476;11.016;2023-05-02T02:51:42;98342.47;;;9.09;58.23
21300;BME280;10809;49.476;11.016;2023-05-02T02:54:40;98351.28;;;9.08;58.28
21300;BME280;10809;49.476;11.016;2023-05-02T02:57:25;98346.16;;;9.05;58.43
21300;BME280;10809;49.476;11.016;2023-05-02T03:00:24;98357.66;;;9.04;58.33
21300;BME280;10809;49.476;11.016;2023-05-02T03:02:55;98368.31;;;9.02;58.62
21300;BME280;10809;49.476;11.016;2023-05-02T03:05:26;98364.94;;;8.99;58.72
21300;BME280;10809;49.476;11.016;2023-05-02T03:08:04;98366.84;;;8.97;58.30
21300;BME280;10809;49.476;11.016;2023-05-02T03:10:35;98371.31;;;8.95;58.40
21300;BME280;10809;49.476;11.016;2023-05-02T03:13:06;98370.53;;;8.93;58.26
21300;BME280;10809;49.476;11.016;2023-05-02T03:18:29;98385.75;;;8.88;58.70
21300;BME280;10809;49.476;11.016;2023-05-02T03:20:59;98391.19;;;8.85;58.24
21300;BME280;10809;49.476;11.016;2023-05-02T03:23:31;98396.59;;;8.82;58.44
21300;BME280;10809;49.476;11.016;2023-05-02T03:26:02;98391.44;;;8.79;58.35
21300;BME280;10809;49.476;11.016;2023-05-02T03:28:32;98393.38;;;8.75;58.76
21300;BME280;10809;49.476;11.016;2023-05-02T03:31:03;98386.44;;;8.73;58.45
21300;BME280;10809;49.476;11.016;2023-05-02T03:33:42;98394.44;;;8.71;58.45
21300;BME280;10809;49.476;11.016;2023-05-02T03:36:16;98391.09;;;8.68;58.66
21300;BME280;10809;49.476;11.016;2023-05-02T03:38:47;98392.00;;;8.67;58.76
21300;BME280;10809;49.476;11.016;2023-05-02T03:41:18;98387.75;;;8.64;58.81
21300;BME280;10809;49.476;11.016;2023-05-02T03:43:55;98396.59;;;8.63;58.94
21300;BME280;10809;49.476;11.016;2023-05-02T03:46:33;98398.41;;;8.61;58.92
21300;BME280;10809;49.476;11.016;2023-05-02T03:49:06;98395.84;;;8.60;58.85
21300;BME280;10809;49.476;11.016;2023-05-02T03:51:36;98397.53;;;8.61;59.01
21300;BME280;10809;49.476;11.016;2023-05-02T03:54:10;98401.91;;;8.62;59.02
21300;BME280;10809;49.476;11.016;2023-05-02T03:56:44;98408.97;;;8.61;59.05
21300;BME280;10809;49.476;11.016;2023-05-02T03:59:46;98401.91;;;8.62;59.16
21300;BME280;10809;49.476;11.016;2023-05-02T04:02:25;98410.72;;;8.62;59.06
21300;BME280;10809;49.476;11.016;2023-05-02T04:04:56;98420.34;;;8.63;59.20
21300;BME280;10809;49.476;11.016;2023-05-02T04:07:27;98413.28;;;8.64;59.01
21300;BME280;10809;49.476;11.016;2023-05-02T04:10:08;98422.06;;;8.64;59.16
21300;BME280;10809;49.476;11.016;2023-05-02T04:12:46;98415.78;;;8.67;59.33
21300;BME280;10809;49.476;11.016;2023-05-02T04:15:18;98413.06;;;8.68;59.43
21300;BME280;10809;49.476;11.016;2023-05-02T04:17:50;98425.28;;;8.71;59.57
21300;BME280;10809;49.476;11.016;2023-05-02T04:20:22;98430.50;;;8.72;59.65
21300;BME280;10809;49.476;11.016;2023-05-02T04:22:55;98431.25;;;8.74;59.42
21300;BME280;10809;49.476;11.016;2023-05-02T04:25:28;98431.19;;;8.76;59.69
21300;BME280;10809;49.476;11.016;2023-05-02T04:28:04;98435.47;;;8.78;59.75
21300;BME280;10809;49.476;11.016;2023-05-02T04:30:38;98452.97;;;8.81;59.57
21300;BME280;10809;49.476;11.016;2023-05-02T04:33:16;98443.19;;;8.83;59.42
21300;BME280;10809;49.476;11.016;2023-05-02T04:35:48;98449.28;;;8.85;59.94
21300;BME280;10809;49.476;11.016;2023-05-02T04:38:21;98447.38;;;8.87;59.57
21300;BME280;10809;49.476;11.016;2023-05-02T04:40:53;98461.31;;;8.90;59.72
21300;BME280;10809;49.476;11.016;2023-05-02T04:43:30;98462.88;;;8.94;59.83
21300;BME280;10809;49.476;11.016;2023-05-02T04:46:07;98459.25;;;8.97;60.01
21300;BME280;10809;49.476;11.016;2023-05-02T04:48:41;98459.13;;;9.00;59.91
21300;BME280;10809;49.476;11.016;2023-05-02T04:51:12;98464.25;;;9.03;60.04
21300;BME280;10809;49.476;11.016;2023-05-02T04:53:42;98467.66;;;9.05;60.04
21300;BME280;10809;49.476;11.016;2023-05-02T04:56:19;98464.94;;;9.06;59.94
21300;BME280;10809;49.476;11.016;2023-05-02T04:58:52;98468.31;;;9.10;59.85
21300;BME280;10809;49.476;11.016;2023-05-02T05:01:32;98475.28;;;9.11;59.88
21300;BME280;10809;49.476;11.016;2023-05-02T05:04:07;98472.56;;;9.12;59.74
21300;BME280;10809;49.476;11.016;2023-05-02T05:06:47;98483.00;;;9.15;59.74
21300;BME280;10809;49.476;11.016;2023-05-02T05:09:25;98483.78;;;9.17;59.85
21300;BME280;10809;49.476;11.016;2023-05-02T05:11:56;98481.06;;;9.19;59.79
21300;BME280;10809;49.476;11.016;2023-05-02T05:14:26;98484.50;;;9.21;59.79
21300;BME280;10809;49.476;11.016;2023-05-02T05:16:59;98490.56;;;9.23;59.71
21300;BME280;10809;49.476;11.016;2023-05-02T05:19:33;98486.94;;;9.25;60.05
21300;BME280;10809;49.476;11.016;2023-05-02T05:22:04;98492.06;;;9.28;59.91
21300;BME280;10809;49.476;11.016;2023-05-02T05:24:35;98492.84;;;9.30;60.18
21300;BME280;10809;49.476;11.016;2023-05-02T05:27:06;98501.47;;;9.34;60.07
21300;BME280;10809;49.476;11.016;2023-05-02T05:29:37;98501.34;;;9.37;59.83
21300;BME280;10809;49.476;11.016;2023-05-02T05:32:08;98495.16;;;9.38;60.17
21300;BME280;10809;49.476;11.016;2023-05-02T05:34:40;98508.28;;;9.39;60.15
21300;BME280;10809;49.476;11.016;2023-05-02T05:37:16;98509.03;;;9.41;60.05
21300;BME280;10809;49.476;11.016;2023-05-02T05:39:47;98510.78;;;9.42;59.91
21300;BME280;10809;49.476;11.016;2023-05-02T05:42:17;98508.91;;;9.44;60.08
21300;BME280;10809;49.476;11.016;2023-05-02T05:44:57;98517.63;;;9.46;60.15
21300;BME280;10809;49.476;11.016;2023-05-02T05:47:31;98523.63;;;9.50;60.28
21300;BME280;10809;49.476;11.016;2023-05-02T05:50:02;98520.91;;;9.51;60.45
21300;BME280;10809;49.476;11.016;2023-05-02T05:52:33;98514.59;;;9.54;60.34
21300;BME280;10809;49.476;11.016;2023-05-02T05:55:06;98512.69;;;9.57;60.60
21300;BME280;10809;49.476;11.016;2023-05-02T05:57:37;98524.81;;;9.62;60.29
21300;BME280;10809;49.476;11.016;2023-05-02T06:00:08;98526.44;;;9.64;60.50
21300;BME280;10809;49.476;11.016;2023-05-02T06:02:45;98523.56;;;9.69;60.60
21300;BME280;10809;49.476;11.016;2023-05-02T06:05:23;98523.44;;;9.72;60.44
21300;BME280;10809;49.476;11.016;2023-05-02T06:07:55;98526.78;;;9.75;60.72
21300;BME280;10809;49.476;11.016;2023-05-02T06:10:30;98530.22;;;9.77;60.31
21300;BME280;10809;49.476;11.016;2023-05-02T06:13:01;98537.94;;;9.82;60.42
21300;BME280;10809;49.476;11.016;2023-05-02T06:15:36;98539.63;;;9.83;60.35
21300;BME280;10809;49.476;11.016;2023-05-02T06:18:08;98545.63;;;9.86;60.29
21300;BME280;10809;49.476;11.016;2023-05-02T06:20:39;98556.06;;;9.89;60.77
21300;BME280;10809;49.476;11.016;2023-05-02T06:23:09;98559.50;;;9.91;60.62
21300;BME280;10809;49.476;11.016;2023-05-02T06:25:43;98567.28;;;9.94;60.65
21300;BME280;10809;49.476;11.016;2023-05-02T06:28:13;98575.06;;;9.97;60.88
21300;BME280;10809;49.476;11.016;2023-05-02T06:30:55;98573.19;;;9.99;60.44
21300;BME280;10809;49.476;11.016;2023-05-02T06:33:29;98574.88;;;10.02;60.40
21300;BME280;10809;49.476;11.016;2023-05-02T06:36:00;98581.81;;;10.04;60.77
21300;BME280;10809;49.476;11.016;2023-05-02T06:38:30;98590.53;;;10.06;60.33
21300;BME280;10809;49.476;11.016;2023-05-02T06:41:01;98593.84;;;10.10;60.32
21300;BME280;10809;49.476;11.016;2023-05-02T06:43:32;98588.50;;;10.11;60.36
21300;BME280;10809;49.476;11.016;2023-05-02T06:46:07;98598.91;;;10.14;60.70
21300;BME280;10809;49.476;11.016;2023-05-02T06:48:38;98598.00;;;10.15;60.44
21300;BME280;10809;49.476;11.016;2023-05-02T06:51:08;98605.88;;;10.17;60.73
21300;BME280;10809;49.476;11.016;2023-05-02T06:53:38;98604.84;;;10.19;60.44
21300;BME280;10809;49.476;11.016;2023-05-02T06:56:09;98607.44;;;10.21;60.43
21300;BME280;10809;49.476;11.016;2023-05-02T06:58:39;98615.38;;;10.21;60.37
21300;BME280;10809;49.476;11.016;2023-05-02T07:01:10;98620.56;;;10.22;60.42
21300;BME280;10809;49.476;11.016;2023-05-02T07:03:41;98615.28;;;10.22;60.45
21300;BME280;10809;49.476;11.016;2023-05-02T07:06:15;98620.56;;;10.22;60.13
21300;BME280;10809;49.476;11.016;2023-05-02T07:08:45;98626.66;;;10.24;60.43
21300;BME280;10809;49.476;11.016;2023-05-02T07:11:16;98634.59;;;10.24;60.46
21300;BME280;10809;49.476;11.016;2023-05-02T07:13:46;98636.38;;;10.24;60.40
21300;BME280;10809;49.476;11.016;2023-05-02T07:16:17;98641.59;;;10.25;60.41
21300;BME280;10809;49.476;11.016;2023-05-02T07:18:47;98638.00;;;10.26;60.51
21300;BME280;10809;49.476;11.016;2023-05-02T07:21:18;98637.84;;;10.29;60.72
21300;BME280;10809;49.476;11.016;2023-05-02T07:23:48;98642.16;;;10.32;60.82
21300;BME280;10809;49.476;11.016;2023-05-02T07:26:19;98644.66;;;10.35;61.04
21300;BME280;10809;49.476;11.016;2023-05-02T07:28:50;98648.03;;;10.38;60.71
21300;BME280;10809;49.476;11.016;2023-05-02T07:31:20;98648.72;;;10.42;60.72
21300;BME280;10809;49.476;11.016;2023-05-02T07:33:54;98647.72;;;10.44;60.70
21300;BME280;10809;49.476;11.016;2023-05-02T07:36:27;98652.00;;;10.47;60.68
21300;BME280;10809;49.476;11.016;2023-05-02T07:38:58;98650.97;;;10.49;60.76
21300;BME280;10809;49.476;11.016;2023-05-02T07:41:28;98657.06;;;10.51;60.47
21300;BME280;10809;49.476;11.016;2023-05-02T07:44:05;98661.34;;;10.54;60.78
21300;BME280;10809;49.476;11.016;2023-05-02T07:46:35;98662.19;;;10.54;60.86
21300;BME280;10809;49.476;11.016;2023-05-02T07:49:06;98662.13;;;10.56;61.01
21300;BME280;10809;49.476;11.016;2023-05-02T07:51:42;98670.06;;;10.56;60.91
21300;BME280;10809;49.476;11.016;2023-05-02T07:54:19;98665.72;;;10.55;60.64
21300;BME280;10809;49.476;11.016;2023-05-02T07:56:50;98668.44;;;10.53;61.03
21300;BME280;10809;49.476;11.016;2023-05-02T07:59:20;98679.09;;;10.52;60.79
21300;BME280;10809;49.476;11.016;2023-05-02T08:01:51;98678.25;;;10.51;61.11
21300;BME280;10809;49.476;11.016;2023-05-02T08:04:21;98677.38;;;10.51;61.17
21300;BME280;10809;49.476;11.016;2023-05-02T08:06:52;98679.19;;;10.50;61.24
21300;BME280;10809;49.476;11.016;2023-05-02T08:09:24;98686.25;;;10.50;61.20
21300;BME280;10809;49.476;11.016;2023-05-02T08:11:54;98688.03;;;10.49;61.42
21300;BME280;10809;49.476;11.016;2023-05-02T08:14:25;98699.50;;;10.50;61.18
21300;BME280;10809;49.476;11.016;2023-05-02T08:16:59;98694.13;;;10.51;61.25
21300;BME280;10809;49.476;11.016;2023-05-02T08:19:29;98692.34;;;10.52;61.58
21300;BME280;10809;49.476;11.016;2023-05-02T08:22:01;98693.03;;;10.55;61.64
21300;BME280;10809;49.476;11.016;2023-05-02T08:24:31;98702.56;;;10.59;62.27
21300;BME280;10809;49.476;11.016;2023-05-02T08:27:02;98700.53;;;10.64;62.19
21300;BME280;10809;49.476;11.016;2023-05-02T08:29:39;98690.56;;;10.69;62.20
21300;BME280;10809;49.476;11.016;2023-05-02T08:32:09;98691.97;;;10.76;62.57
21300;BME280;10809;49.476;11.016;2023-05-02T08:34:40;98693.31;;;10.85;62.33
21300;BME280;10809;49.476;11.016;2023-05-02T08:37:10;98693.72;;;10.94;62.85
21300;BME280;10809;49.476;11.016;2023-05-02T08:39:44;98695.03;;;11.03;62.78
21300;BME280;10809;49.476;11.016;2023-05-02T08:42:15;98704.28;;;11.11;62.95
21300;BME280;10809;49.476;11.016;2023-05-02T08:44:47;98708.09;;;11.23;62.88
21300;BME280;10809;49.476;11.016;2023-05-02T08:47:17;98710.22;;;11.34;62.81
21300;BME280;10809;49.476;11.016;2023-05-02T08:49:48;98707.03;;;11.44;62.89
21300;BME280;10809;49.476;11.016;2023-05-02T08:52:21;98708.94;;;11.58;63.22
21300;BME280;10809;49.476;11.016;2023-05-02T08:54:55;98708.13;;;11.73;63.64
21300;BME280;10809;49.476;11.016;2023-05-02T08:57:29;98715.84;;;11.93;63.74
21300;BME280;10809;49.476;11.016;2023-05-02T09:00:04;98714.75;;;12.12;63.57
21300;BME280;10809;49.476;11.016;2023-05-02T09:02:38;98713.72;;;12.30;63.36
21300;BME280;10809;49.476;11.016;2023-05-02T09:05:15;98709.97;;;12.50;63.81
21300;BME280;10809;49.476;11.016;2023-05-02T09:07:50;98719.19;;;12.74;64.06
21300;BME280;10809;49.476;11.016;2023-05-02T09:10:20;98715.31;;;12.95;63.78
21300;BME280;10809;49.476;11.016;2023-05-02T09:12:52;98713.19;;;13.16;63.56
21300;BME280;10809;49.476;11.016;2023-05-02T09:15:22;98715.69;;;13.33;63.23
21300;BME280;10809;49.476;11.016;2023-05-02T09:17:54;98720.03;;;13.49;62.98
21300;BME280;10809;49.476;11.016;2023-05-02T09:20:24;98715.47;;;13.65;63.30
21300;BME280;10809;49.476;11.016;2023-05-02T09:22:55;98728.50;;;13.84;63.40
21300;BME280;10809;49.476;11.016;2023-05-02T09:25:35;98721.00;;;14.04;63.21
21300;BME280;10809;49.476;11.016;2023-05-02T09:28:06;98726.00;;;14.23;63.10
21300;BME280;10809;49.476;11.016;2023-05-02T09:30:37;98721.22;;;14.42;63.30
21300;BME280;10809;49.476;11.016;2023-05-02T09:33:08;98717.28;;;14.61;63.53
21300;BME280;10809;49.476;11.016;2023-05-02T09:35:53;98720.03;;;14.87;63.11
21300;BME280;10809;49.476;11.016;2023-05-02T09:38:24;98719.47;;;15.08;63.73
21300;BME280;10809;49.476;11.016;2023-05-02T09:40:55;98717.69;;;15.34;63.00
21300;BME280;10809;49.476;11.016;2023-05-02T09:43:25;98712.00;;;15.52;62.19
21300;BME280;10809;49.476;11.016;2023-05-02T09:48:28;98717.56;;;15.74;60.00
21300;BME280;10809;49.476;11.016;2023-05-02T09:50:59;98716.50;;;15.77;59.68
21300;BME280;10809;49.476;11.016;2023-05-02T09:53:42;98719.16;;;15.77;59.49
21300;BME280;10809;49.476;11.016;2023-05-02T09:56:22;98725.56;;;15.74;59.23
21300;BME280;10809;49.476;11.016;2023-05-02T09:59:32;98732.06;;;15.70;59.08
21300;BME280;10809;49.476;11.016;2023-05-02T10:02:06;98725.47;;;15.63;58.40
21300;BME280;10809;49.476;11.016;2023-05-02T10:04:38;98727.78;;;15.55;57.82
21300;BME280;10809;49.476;11.016;2023-05-02T10:07:09;98726.72;;;15.45;57.90
21300;BME280;10809;49.476;11.016;2023-05-02T10:09:57;98731.72;;;15.37;58.50
21300;BME280;10809;49.476;11.016;2023-05-02T10:12:29;98724.88;;;15.33;58.68
21300;BME280;10809;49.476;11.016;2023-05-02T10:15:09;98728.38;;;15.34;59.04
21300;BME280;10809;49.476;11.016;2023-05-02T10:17:50;98723.72;;;15.37;59.21
21300;BME280;10809;49.476;11.016;2023-05-02T10:20:25;98727.78;;;15.43;58.94
21300;BME280;10809;49.476;11.016;2023-05-02T10:23:00;98737.41;;;15.45;58.52
21300;BME280;10809;49.476;11.016;2023-05-02T10:25:32;98730.06;;;15.49;58.39
21300;BME280;10809;49.476;11.016;2023-05-02T10:28:03;98728.88;;;15.53;58.41
21300;BME280;10809;49.476;11.016;2023-05-02T10:30:34;98724.91;;;15.58;58.47
21300;BME280;10809;49.476;11.016;2023-05-02T10:33:05;98722.69;;;15.65;58.28
21300;BME280;10809;49.476;11.016;2023-05-02T10:35:36;98720.34;;;15.73;58.56
21300;BME280;10809;49.476;11.016;2023-05-02T10:38:09;98723.31;;;15.81;58.54
21300;BME280;10809;49.476;11.016;2023-05-02T10:40:41;98712.72;;;15.92;58.76
21300;BME280;10809;49.476;11.016;2023-05-02T10:43:14;98708.34;;;16.03;58.07
21300;BME280;10809;49.476;11.016;2023-05-02T10:45:45;98709.41;;;16.13;57.79
21300;BME280;10809;49.476;11.016;2023-05-02T10:48:19;98704.38;;;16.21;57.86
21300;BME280;10809;49.476;11.016;2023-05-02T10:50:53;98708.31;;;16.28;57.55
21300;BME280;10809;49.476;11.016;2023-05-02T10:53:31;98696.22;;;16.35;57.77
21300;BME280;10809;49.476;11.016;2023-05-02T10:56:20;98700.16;;;16.42;57.65
21300;BME280;10809;49.476;11.016;2023-05-02T10:59:27;98695.84;;;16.53;57.23
21300;BME280;10809;49.476;11.016;2023-05-02T11:01:58;98691.78;;;16.60;55.72
21300;BME280;10809;49.476;11.016;2023-05-02T11:05:00;98698.81;;;16.61;55.92
21300;BME280;10809;49.476;11.016;2023-05-02T11:07:33;98693.69;;;16.58;55.48
21300;BME280;10809;49.476;11.016;2023-05-02T11:10:24;98681.53;;;16.54;55.94
21300;BME280;10809;49.476;11.016;2023-05-02T11:12:58;98677.13;;;16.53;55.93
21300;BME280;10809;49.476;11.016;2023-05-02T11:18:11;98681.31;;;16.57;55.94
21300;BME280;10809;49.476;11.016;2023-05-02T11:20:43;98686.31;;;16.61;55.23
21300;BME280;10809;49.476;11.016;2023-05-02T11:23:21;98678.78;;;16.66;55.24
21300;BME280;10809;49.476;11.016;2023-05-02T11:25:58;98671.38;;;16.70;55.71
21300;BME280;10809;49.476;11.016;2023-05-02T11:28:40;98673.59;;;16.76;55.74
21300;BME280;10809;49.476;11.016;2023-05-02T11:34:02;98671.56;;;16.79;55.07
21300;BME280;10809;49.476;11.016;2023-05-02T11:36:33;98677.03;;;16.78;54.62
21300;BME280;10809;49.476;11.016;2023-05-02T11:39:17;98672.03;;;16.73;55.00
21300;BME280;10809;49.476;11.016;2023-05-02T11:41:51;98680.41;;;16.69;54.35
21300;BME280;10809;49.476;11.016;2023-05-02T11:44:23;98683.63;;;16.61;54.18
21300;BME280;10809;49.476;11.016;2023-05-02T11:46:54;98676.19;;;16.54;54.27
21300;BME280;10809;49.476;11.016;2023-05-02T11:49:24;98681.34;;;16.44;53.83
21300;BME280;10809;49.476;11.016;2023-05-02T11:51:57;98684.69;;;16.35;53.81
21300;BME280;10809;49.476;11.016;2023-05-02T11:54:37;98689.91;;;16.24;53.83
21300;BME280;10809;49.476;11.016;2023-05-02T11:57:14;98686.31;;;16.12;54.08
21300;BME280;10809;49.476;11.016;2023-05-02T11:59:55;98688.03;;;16.01;53.91
21300;BME280;10809;49.476;11.016;2023-05-02T12:02:44;98684.44;;;15.89;54.06
21300;BME280;10809;49.476;11.016;2023-05-02T12:05:26;98697.47;;;15.81;54.45
21300;BME280;10809;49.476;11.016;2023-05-02T12:07:58;98702.38;;;15.75;54.36
21300;BME280;10809;49.476;11.016;2023-05-02T12:10:37;98702.59;;;15.72;55.03
21300;BME280;10809;49.476;11.016;2023-05-02T12:13:07;98703.47;;;15.72;54.91
21300;BME280;10809;49.476;11.016;2023-05-02T12:15:38;98708.47;;;15.77;54.82
21300;BME280;10809;49.476;11.016;2023-05-02T12:18:08;98705.16;;;15.86;55.13
21300;BME280;10809;49.476;11.016;2023-05-02T12:20:39;98702.59;;;15.97;55.70
21300;BME280;10809;49.476;11.016;2023-05-02T12:23:10;98709.50;;;16.12;55.32
21300;BME280;10809;49.476;11.016;2023-05-02T12:25:47;98700.50;;;16.25;54.17
21300;BME280;10809;49.476;11.016;2023-05-02T12:28:21;98705.22;;;16.34;53.56
21300;BME280;10809;49.476;11.016;2023-05-02T12:30:56;98713.13;;;16.36;53.00
21300;BME280;10809;49.476;11.016;2023-05-02T12:33:26;98718.56;;;16.34;52.86
21300;BME280;10809;49.476;11.016;2023-05-02T12:36:05;98731.41;;;16.29;52.77
21300;BME280;10809;49.476;11.016;2023-05-02T12:38:56;98735.56;;;16.21;52.67
21300;BME280;10809;49.476;11.016;2023-05-02T12:41:47;98734.53;;;16.11;52.70
21300;BME280;10809;49.476;11.016;2023-05-02T12:44:35;98745.88;;;16.02;52.90
21300;BME280;10809;49.476;11.016;2023-05-02T12:47:10;98763.25;;;15.95;52.72
21300;BME280;10809;49.476;11.016;2023-05-02T12:49:54;98769.25;;;15.86;52.62
21300;BME280;10809;49.476;11.016;2023-05-02T12:52:47;98778.97;;;15.74;52.62
21300;BME280;10809;49.476;11.016;2023-05-02T12:55:23;98778.00;;;15.63;52.73
21300;BME280;10809;49.476;11.016;2023-05-02T12:58:05;98781.50;;;15.51;52.61
21300;BME280;10809;49.476;11.016;2023-05-02T13:00:38;98791.19;;;15.39;52.48
21300;BME280;10809;49.476;11.016;2023-05-02T13:03:09;98797.31;;;15.27;52.67
21300;BME280;10809;49.476;11.016;2023-05-02T13:05:39;98791.94;;;15.15;52.59
21300;BME280;10809;49.476;11.016;2023-05-02T13:08:10;98790.00;;;15.04;52.51
21300;BME280;10809;49.476;11.016;2023-05-02T13:10:41;98787.16;;;14.93;52.71
21300;BME280;10809;49.476;11.016;2023-05-02T13:13:11;98803.88;;;14.83;52.79
21300;BME280;10809;49.476;11.016;2023-05-02T13:15:42;98804.47;;;14.73;52.73
21300;BME280;10809;49.476;11.016;2023-05-02T13:18:12;98810.38;;;14.64;52.87
21300;BME280;10809;49.476;11.016;2023-05-02T13:20:43;98805.63;;;14.55;52.83
21300;BME280;10809;49.476;11.016;2023-05-02T13:23:16;98806.13;;;14.48;53.13
21300;BME280;10809;49.476;11.016;2023-05-02T13:25:47;98803.06;;;14.40;53.46
21300;BME280;10809;49.476;11.016;2023-05-02T13:28:17;98808.88;;;14.32;53.63
21300;BME280;10809;49.476;11.016;2023-05-02T13:30:51;98805.72;;;14.26;53.84
21300;BME280;10809;49.476;11.016;2023-05-02T13:33:22;98798.09;;;14.20;53.86
21300;BME280;10809;49.476;11.016;2023-05-02T13:35:52;98799.25;;;14.16;54.06
21300;BME280;10809;49.476;11.016;2023-05-02T13:38:22;98792.44;;;14.12;54.08
21300;BME280;10809;49.476;11.016;2023-05-02T13:40:56;98781.97;;;14.09;54.48
21300;BME280;10809;49.476;11.016;2023-05-02T13:43:26;98773.97;;;14.09;54.58
21300;BME280;10809;49.476;11.016;2023-05-02T13:45:57;98777.28;;;14.12;55.17
21300;BME280;10809;49.476;11.016;2023-05-02T13:48:27;98776.91;;;14.18;55.36
21300;BME280;10809;49.476;11.016;2023-05-02T13:50:59;98773.56;;;14.29;55.73
21300;BME280;10809;49.476;11.016;2023-05-02T13:53:29;98777.09;;;14.43;55.90